White Sands National Monumen, New Mexico
Current Conditions -  °F | °C
As of 8:58 AM on Friday 24 Oct 2014 (Local Time) from KHMN Reporting Station
Clear Clear  
Wind Chill: 56°   Ceiling: Unl
Heat Index: 56°   Visibility: 10mi
Dew Point: 47°   Wind: 3mph
Humidity: 72%   Direction: 140°SE
Pressure: 30.26"   Gusts: NA
Location:  32.7929°N, 106.161°W
Report Text: KHMN 241458Z AUTO 14003KT 10SM CLR 14/09 A3026 RMK AO2 SLP202 T01350086 52017 $
Loading
Personal Weather Stations






























Interactive Weather Map
Tropical Storm Tracking
New forecast layout! Learn more

10-Day Weather Forecast

Advertisements
Track Severe Weather on mobile